sensor_id;sensor_type;location;lat;lon;timestamp;temperature;humidity
36374;DHT22;22399;51.346;12.372;2023-07-13T00:01:16;22.00;51.60
36374;DHT22;22399;51.346;12.372;2023-07-13T00:03:45;22.00;51.60
36374;DHT22;22399;51.346;12.372;2023-07-13T00:06:14;21.90;51.70
36374;DHT22;22399;51.346;12.372;2023-07-13T00:08:42;21.80;51.80
36374;DHT22;22399;51.346;12.372;2023-07-13T00:11:11;21.80;52.00
36374;DHT22;22399;51.346;12.372;2023-07-13T00:13:40;21.80;52.00
36374;DHT22;22399;51.346;12.372;2023-07-13T00:16:11;21.90;52.20
36374;DHT22;22399;51.346;12.372;2023-07-13T00:18:43;22.00;52.20
36374;DHT22;22399;51.346;12.372;2023-07-13T00:21:11;21.90;52.10
36374;DHT22;22399;51.346;12.372;2023-07-13T00:23:41;21.90;52.20
36374;DHT22;22399;51.346;12.372;2023-07-13T00:26:11;21.90;52.20
36374;DHT22;22399;51.346;12.372;2023-07-13T00:28:41;21.90;52.30
36374;DHT22;22399;51.346;12.372;2023-07-13T00:31:10;21.90;52.40
36374;DHT22;22399;51.346;12.372;2023-07-13T00:33:40;21.90;52.40
36374;DHT22;22399;51.346;12.372;2023-07-13T00:36:11;21.80;52.40
36374;DHT22;22399;51.346;12.372;2023-07-13T00:38:40;21.80;52.50
36374;DHT22;22399;51.346;12.372;2023-07-13T00:41:09;21.80;52.50
36374;DHT22;22399;51.346;12.372;2023-07-13T00:43:38;21.80;52.50
36374;DHT22;22399;51.346;12.372;2023-07-13T00:46:24;21.80;52.60
36374;DHT22;22399;51.346;12.372;2023-07-13T00:48:55;21.80;52.70
36374;DHT22;22399;51.346;12.372;2023-07-13T00:51:30;21.70;52.80
36374;DHT22;22399;51.346;12.372;2023-07-13T00:54:02;21.70;52.90
36374;DHT22;22399;51.346;12.372;2023-07-13T00:56:33;21.70;53.00
36374;DHT22;22399;51.346;12.372;2023-07-13T00:59:03;21.60;53.10
36374;DHT22;22399;51.346;12.372;2023-07-13T01:01:33;21.60;53.20
36374;DHT22;22399;51.346;12.372;2023-07-13T01:04:04;21.50;53.20
36374;DHT22;22399;51.346;12.372;2023-07-13T01:06:37;21.50;53.30
36374;DHT22;22399;51.346;12.372;2023-07-13T01:09:07;21.50;53.40
36374;DHT22;22399;51.346;12.372;2023-07-13T01:11:38;21.50;53.60
36374;DHT22;22399;51.346;12.372;2023-07-13T01:14:07;21.40;53.60
36374;DHT22;22399;51.346;12.372;2023-07-13T01:16:37;21.40;53.70
36374;DHT22;22399;51.346;12.372;2023-07-13T01:19:12;21.40;53.80
36374;DHT22;22399;51.346;12.372;2023-07-13T01:21:50;21.40;53.90
36374;DHT22;22399;51.346;12.372;2023-07-13T01:24:19;21.40;54.00
36374;DHT22;22399;51.346;12.372;2023-07-13T01:26:49;21.30;54.10
36374;DHT22;22399;51.346;12.372;2023-07-13T01:29:17;21.20;54.20
36374;DHT22;22399;51.346;12.372;2023-07-13T01:31:46;21.20;54.20
36374;DHT22;22399;51.346;12.372;2023-07-13T01:34:15;21.20;54.40
36374;DHT22;22399;51.346;12.372;2023-07-13T01:36:45;21.10;54.40
36374;DHT22;22399;51.346;12.372;2023-07-13T01:39:14;21.10;54.50
36374;DHT22;22399;51.346;12.372;2023-07-13T01:41:44;21.10;55.20
36374;DHT22;22399;51.346;12.372;2023-07-13T01:44:13;21.10;54.70
36374;DHT22;22399;51.346;12.372;2023-07-13T01:46:41;21.00;54.70
36374;DHT22;22399;51.346;12.372;2023-07-13T01:49:10;21.00;54.80
36374;DHT22;22399;51.346;12.372;2023-07-13T01:51:39;21.00;54.90
36374;DHT22;22399;51.346;12.372;2023-07-13T01:54:08;20.90;54.90
36374;DHT22;22399;51.346;12.372;2023-07-13T01:56:37;20.90;55.00
36374;DHT22;22399;51.346;12.372;2023-07-13T01:59:07;20.90;55.10
36374;DHT22;22399;51.346;12.372;2023-07-13T02:01:35;20.90;55.10
36374;DHT22;22399;51.346;12.372;2023-07-13T02:04:04;20.70;55.10
36374;DHT22;22399;51.346;12.372;2023-07-13T02:06:33;20.70;55.30
36374;DHT22;22399;51.346;12.372;2023-07-13T02:09:02;20.70;55.50
36374;DHT22;22399;51.346;12.372;2023-07-13T02:11:32;20.60;55.60
36374;DHT22;22399;51.346;12.372;2023-07-13T02:14:01;20.60;55.70
36374;DHT22;22399;51.346;12.372;2023-07-13T02:16:30;20.50;55.80
36374;DHT22;22399;51.346;12.372;2023-07-13T02:18:59;20.40;56.00
36374;DHT22;22399;51.346;12.372;2023-07-13T02:21:28;20.40;56.10
36374;DHT22;22399;51.346;12.372;2023-07-13T02:23:57;20.30;56.20
36374;DHT22;22399;51.346;12.372;2023-07-13T02:26:27;20.20;56.40
36374;DHT22;22399;51.346;12.372;2023-07-13T02:28:57;20.20;56.60
36374;DHT22;22399;51.346;12.372;2023-07-13T02:31:25;20.20;56.70
36374;DHT22;22399;51.346;12.372;2023-07-13T02:33:54;20.20;56.70
36374;DHT22;22399;51.346;12.372;2023-07-13T02:36:22;20.30;56.70
36374;DHT22;22399;51.346;12.372;2023-07-13T02:38:50;20.20;56.80
36374;DHT22;22399;51.346;12.372;2023-07-13T02:41:19;20.10;56.90
36374;DHT22;22399;51.346;12.372;2023-07-13T02:43:47;20.00;57.10
36374;DHT22;22399;51.346;12.372;2023-07-13T02:46:17;19.90;57.30
36374;DHT22;22399;51.346;12.372;2023-07-13T02:48:46;19.80;57.50
36374;DHT22;22399;51.346;12.372;2023-07-13T02:51:14;19.60;57.60
36374;DHT22;22399;51.346;12.372;2023-07-13T02:53:43;19.50;58.00
36374;DHT22;22399;51.346;12.372;2023-07-13T02:56:12;19.40;58.20
36374;DHT22;22399;51.346;12.372;2023-07-13T02:58:44;19.30;58.40
36374;DHT22;22399;51.346;12.372;2023-07-13T03:01:12;19.20;58.60
36374;DHT22;22399;51.346;12.372;2023-07-13T03:03:48;19.10;58.80
36374;DHT22;22399;51.346;12.372;2023-07-13T03:06:19;19.00;58.90
36374;DHT22;22399;51.346;12.372;2023-07-13T03:08:52;19.00;59.10
36374;DHT22;22399;51.346;12.372;2023-07-13T03:11:22;18.90;59.20
36374;DHT22;22399;51.346;12.372;2023-07-13T03:13:58;18.80;59.30
36374;DHT22;22399;51.346;12.372;2023-07-13T03:16:30;18.80;59.60
36374;DHT22;22399;51.346;12.372;2023-07-13T03:19:00;18.80;59.80
36374;DHT22;22399;51.346;12.372;2023-07-13T03:21:29;18.80;59.90
36374;DHT22;22399;51.346;12.372;2023-07-13T03:23:58;18.80;59.90
36374;DHT22;22399;51.346;12.372;2023-07-13T03:26:27;18.80;60.00
36374;DHT22;22399;51.346;12.372;2023-07-13T03:28:56;18.70;60.20
36374;DHT22;22399;51.346;12.372;2023-07-13T03:31:27;18.70;60.40
36374;DHT22;22399;51.346;12.372;2023-07-13T03:33:57;18.70;60.50
36374;DHT22;22399;51.346;12.372;2023-07-13T03:36:30;18.70;60.60
36374;DHT22;22399;51.346;12.372;2023-07-13T03:39:04;18.80;60.70
36374;DHT22;22399;51.346;12.372;2023-07-13T03:41:48;18.80;60.80
36374;DHT22;22399;51.346;12.372;2023-07-13T03:44:17;18.70;60.90
36374;DHT22;22399;51.346;12.372;2023-07-13T03:46:50;18.70;61.00
36374;DHT22;22399;51.346;12.372;2023-07-13T03:49:19;18.60;61.30
36374;DHT22;22399;51.346;12.372;2023-07-13T03:51:49;18.50;61.50
36374;DHT22;22399;51.346;12.372;2023-07-13T03:54:20;18.50;61.60
36374;DHT22;22399;51.346;12.372;2023-07-13T03:56:49;18.50;61.80
36374;DHT22;22399;51.346;12.372;2023-07-13T03:59:19;18.50;62.00
36374;DHT22;22399;51.346;12.372;2023-07-13T04:01:47;18.50;62.00
36374;DHT22;22399;51.346;12.372;2023-07-13T04:04:16;18.50;62.20
36374;DHT22;22399;51.346;12.372;2023-07-13T04:06:45;18.50;62.30
36374;DHT22;22399;51.346;12.372;2023-07-13T04:09:15;18.50;62.40
36374;DHT22;22399;51.346;12.372;2023-07-13T04:11:43;18.50;62.50
36374;DHT22;22399;51.346;12.372;2023-07-13T04:14:12;18.40;62.60
36374;DHT22;22399;51.346;12.372;2023-07-13T04:16:41;18.40;62.80
36374;DHT22;22399;51.346;12.372;2023-07-13T04:19:10;18.50;62.90
36374;DHT22;22399;51.346;12.372;2023-07-13T04:21:39;18.50;63.10
36374;DHT22;22399;51.346;12.372;2023-07-13T04:24:07;18.50;63.20
36374;DHT22;22399;51.346;12.372;2023-07-13T04:26:37;18.50;63.20
36374;DHT22;22399;51.346;12.372;2023-07-13T04:29:07;18.60;63.30
36374;DHT22;22399;51.346;12.372;2023-07-13T04:31:35;18.70;63.20
36374;DHT22;22399;51.346;12.372;2023-07-13T04:34:04;18.90;63.10
36374;DHT22;22399;51.346;12.372;2023-07-13T04:36:33;19.20;62.90
36374;DHT22;22399;51.346;12.372;2023-07-13T04:39:05;19.40;62.60
36374;DHT22;22399;51.346;12.372;2023-07-13T04:41:33;19.50;62.30
36374;DHT22;22399;51.346;12.372;2023-07-13T04:44:04;19.70;62.10
36374;DHT22;22399;51.346;12.372;2023-07-13T04:46:32;19.90;61.80
36374;DHT22;22399;51.346;12.372;2023-07-13T04:49:03;20.10;61.70
36374;DHT22;22399;51.346;12.372;2023-07-13T04:51:32;20.20;61.40
36374;DHT22;22399;51.346;12.372;2023-07-13T04:54:00;20.40;61.20
36374;DHT22;22399;51.346;12.372;2023-07-13T04:56:29;20.40;61.00
36374;DHT22;22399;51.346;12.372;2023-07-13T04:58:57;20.50;61.00
36374;DHT22;22399;51.346;12.372;2023-07-13T05:01:28;20.40;61.00
36374;DHT22;22399;51.346;12.372;2023-07-13T05:03:56;20.30;61.10
36374;DHT22;22399;51.346;12.372;2023-07-13T05:06:26;20.20;61.50
36374;DHT22;22399;51.346;12.372;2023-07-13T05:08:55;20.10;61.80
36374;DHT22;22399;51.346;12.372;2023-07-13T05:11:24;19.90;62.00
36374;DHT22;22399;51.346;12.372;2023-07-13T05:13:52;19.90;62.40
36374;DHT22;22399;51.346;12.372;2023-07-13T05:16:20;19.90;62.50
36374;DHT22;22399;51.346;12.372;2023-07-13T05:18:50;19.90;62.70
36374;DHT22;22399;51.346;12.372;2023-07-13T05:21:19;19.90;62.70
36374;DHT22;22399;51.346;12.372;2023-07-13T05:23:48;20.00;62.80
36374;DHT22;22399;51.346;12.372;2023-07-13T05:26:16;20.00;62.90
36374;DHT22;22399;51.346;12.372;2023-07-13T05:28:45;20.10;63.00
36374;DHT22;22399;51.346;12.372;2023-07-13T05:31:13;20.10;62.90
36374;DHT22;22399;51.346;12.372;2023-07-13T05:33:42;20.20;62.80
36374;DHT22;22399;51.346;12.372;2023-07-13T05:36:12;20.30;62.80
36374;DHT22;22399;51.346;12.372;2023-07-13T05:38:41;20.60;62.60
36374;DHT22;22399;51.346;12.372;2023-07-13T05:41:09;21.20;61.80
36374;DHT22;22399;51.346;12.372;2023-07-13T05:43:38;21.80;61.00
36374;DHT22;22399;51.346;12.372;2023-07-13T05:46:06;22.20;60.10
36374;DHT22;22399;51.346;12.372;2023-07-13T05:48:35;22.80;59.50
36374;DHT22;22399;51.346;12.372;2023-07-13T05:51:03;22.90;58.90
36374;DHT22;22399;51.346;12.372;2023-07-13T05:53:34;22.90;58.80
36374;DHT22;22399;51.346;12.372;2023-07-13T05:56:03;22.80;58.80
36374;DHT22;22399;51.346;12.372;2023-07-13T05:58:31;23.00;59.10
36374;DHT22;22399;51.346;12.372;2023-07-13T06:01:02;23.90;59.30
36374;DHT22;22399;51.346;12.372;2023-07-13T06:03:33;25.10;57.30
36374;DHT22;22399;51.346;12.372;2023-07-13T06:06:02;25.20;56.20
36374;DHT22;22399;51.346;12.372;2023-07-13T06:08:30;25.10;56.40
36374;DHT22;22399;51.346;12.372;2023-07-13T06:11:05;25.50;56.00
36374;DHT22;22399;51.346;12.372;2023-07-13T06:13:34;25.10;55.70
36374;DHT22;22399;51.346;12.372;2023-07-13T06:16:03;25.50;56.90
36374;DHT22;22399;51.346;12.372;2023-07-13T06:18:37;26.80;55.50
36374;DHT22;22399;51.346;12.372;2023-07-13T06:21:06;28.20;53.90
36374;DHT22;22399;51.346;12.372;2023-07-13T06:23:36;28.90;52.30
36374;DHT22;22399;51.346;12.372;2023-07-13T06:26:07;29.40;51.80
36374;DHT22;22399;51.346;12.372;2023-07-13T06:28:37;30.20;50.80
36374;DHT22;22399;51.346;12.372;2023-07-13T06:31:08;30.80;50.10
36374;DHT22;22399;51.346;12.372;2023-07-13T06:33:37;31.20;49.30
36374;DHT22;22399;51.346;12.372;2023-07-13T06:36:07;31.40;48.70
36374;DHT22;22399;51.346;12.372;2023-07-13T06:38:37;31.50;48.20
36374;DHT22;22399;51.346;12.372;2023-07-13T06:41:08;31.20;48.40
36374;DHT22;22399;51.346;12.372;2023-07-13T06:43:37;31.30;48.40
36374;DHT22;22399;51.346;12.372;2023-07-13T06:46:06;31.60;48.00
36374;DHT22;22399;51.346;12.372;2023-07-13T06:48:35;31.40;48.10
36374;DHT22;22399;51.346;12.372;2023-07-13T06:51:04;31.40;47.80
36374;DHT22;22399;51.346;12.372;2023-07-13T06:53:33;31.90;47.30
36374;DHT22;22399;51.346;12.372;2023-07-13T06:56:01;32.10;46.50
36374;DHT22;22399;51.346;12.372;2023-07-13T06:58:34;32.30;46.10
36374;DHT22;22399;51.346;12.372;2023-07-13T07:01:04;32.50;45.70
36374;DHT22;22399;51.346;12.372;2023-07-13T07:03:35;32.50;45.40
36374;DHT22;22399;51.346;12.372;2023-07-13T07:06:13;32.40;45.20
36374;DHT22;22399;51.346;12.372;2023-07-13T07:08:42;32.40;45.30
36374;DHT22;22399;51.346;12.372;2023-07-13T07:11:13;32.70;44.60
36374;DHT22;22399;51.346;12.372;2023-07-13T07:13:43;32.00;44.50
36374;DHT22;22399;51.346;12.372;2023-07-13T07:16:12;30.50;45.60
36374;DHT22;22399;51.346;12.372;2023-07-13T07:18:40;29.40;47.20
36374;DHT22;22399;51.346;12.372;2023-07-13T07:21:09;28.40;47.50
36374;DHT22;22399;51.346;12.372;2023-07-13T07:23:38;27.50;48.40
36374;DHT22;22399;51.346;12.372;2023-07-13T07:26:06;27.30;48.60
36374;DHT22;22399;51.346;12.372;2023-07-13T07:28:37;26.90;48.90
36374;DHT22;22399;51.346;12.372;2023-07-13T07:31:11;27.90;48.80
36374;DHT22;22399;51.346;12.372;2023-07-13T07:33:42;29.20;47.20
36374;DHT22;22399;51.346;12.372;2023-07-13T07:36:11;29.90;46.20
36374;DHT22;22399;51.346;12.372;2023-07-13T07:38:43;30.80;45.20
36374;DHT22;22399;51.346;12.372;2023-07-13T07:41:13;30.90;44.60
36374;DHT22;22399;51.346;12.372;2023-07-13T07:43:44;31.50;44.00
36374;DHT22;22399;51.346;12.372;2023-07-13T07:46:14;32.50;43.00
36374;DHT22;22399;51.346;12.372;2023-07-13T07:48:43;32.70;42.60
36374;DHT22;22399;51.346;12.372;2023-07-13T07:51:12;31.90;42.60
36374;DHT22;22399;51.346;12.372;2023-07-13T07:53:40;30.70;43.50
36374;DHT22;22399;51.346;12.372;2023-07-13T07:56:09;29.70;44.40
36374;DHT22;22399;51.346;12.372;2023-07-13T07:58:41;28.90;45.30
36374;DHT22;22399;51.346;12.372;2023-07-13T08:01:14;28.20;45.90
36374;DHT22;22399;51.346;12.372;2023-07-13T08:03:45;27.80;46.30
36374;DHT22;22399;51.346;12.372;2023-07-13T08:06:17;27.90;46.30
36374;DHT22;22399;51.346;12.372;2023-07-13T08:08:49;28.20;46.20
36374;DHT22;22399;51.346;12.372;2023-07-13T08:11:18;29.00;45.40
36374;DHT22;22399;51.346;12.372;2023-07-13T08:13:49;29.70;44.50
36374;DHT22;22399;51.346;12.372;2023-07-13T08:16:23;30.40;43.80
36374;DHT22;22399;51.346;12.372;2023-07-13T08:18:51;31.00;43.10
36374;DHT22;22399;51.346;12.372;2023-07-13T08:21:20;31.40;42.70
36374;DHT22;22399;51.346;12.372;2023-07-13T08:23:49;31.80;42.30
36374;DHT22;22399;51.346;12.372;2023-07-13T08:26:18;31.90;41.80
36374;DHT22;22399;51.346;12.372;2023-07-13T08:28:47;32.10;41.70
36374;DHT22;22399;51.346;12.372;2023-07-13T08:31:15;32.60;41.50
36374;DHT22;22399;51.346;12.372;2023-07-13T08:33:45;32.90;41.20
36374;DHT22;22399;51.346;12.372;2023-07-13T08:36:14;33.40;40.70
36374;DHT22;22399;51.346;12.372;2023-07-13T08:38:42;33.10;40.40
36374;DHT22;22399;51.346;12.372;2023-07-13T08:41:13;32.70;40.60
36374;DHT22;22399;51.346;12.372;2023-07-13T08:43:45;32.40;40.60
36374;DHT22;22399;51.346;12.372;2023-07-13T08:46:17;31.70;41.00
36374;DHT22;22399;51.346;12.372;2023-07-13T08:48:51;31.10;41.50
36374;DHT22;22399;51.346;12.372;2023-07-13T08:51:34;30.20;42.00
36374;DHT22;22399;51.346;12.372;2023-07-13T08:54:08;30.40;42.30
36374;DHT22;22399;51.346;12.372;2023-07-13T08:56:38;30.30;41.90
36374;DHT22;22399;51.346;12.372;2023-07-13T08:59:12;30.40;41.80
36374;DHT22;22399;51.346;12.372;2023-07-13T09:01:58;30.70;41.60
36374;DHT22;22399;51.346;12.372;2023-07-13T09:04:34;30.80;41.00
36374;DHT22;22399;51.346;12.372;2023-07-13T09:07:11;31.40;40.70
36374;DHT22;22399;51.346;12.372;2023-07-13T09:09:54;31.60;39.70
36374;DHT22;22399;51.346;12.372;2023-07-13T09:12:30;31.70;39.60
36374;DHT22;22399;51.346;12.372;2023-07-13T09:15:02;32.00;39.40
36374;DHT22;22399;51.346;12.372;2023-07-13T09:17:36;32.60;39.00
36374;DHT22;22399;51.346;12.372;2023-07-13T09:20:22;32.40;38.40
36374;DHT22;22399;51.346;12.372;2023-07-13T09:22:53;31.40;38.70
36374;DHT22;22399;51.346;12.372;2023-07-13T09:25:27;30.90;39.30
36374;DHT22;22399;51.346;12.372;2023-07-13T09:28:02;30.40;39.60
36374;DHT22;22399;51.346;12.372;2023-07-13T09:30:51;30.50;40.00
36374;DHT22;22399;51.346;12.372;2023-07-13T09:33:57;30.60;39.50
36374;DHT22;22399;51.346;12.372;2023-07-13T09:36:37;31.20;39.40
36374;DHT22;22399;51.346;12.372;2023-07-13T09:39:14;31.40;38.60
36374;DHT22;22399;51.346;12.372;2023-07-13T09:41:52;31.70;38.30
36374;DHT22;22399;51.346;12.372;2023-07-13T09:44:29;31.60;38.20
36374;DHT22;22399;51.346;12.372;2023-07-13T09:46:58;31.30;38.00
36374;DHT22;22399;51.346;12.372;2023-07-13T09:49:29;30.90;38.10
36374;DHT22;22399;51.346;12.372;2023-07-13T09:52:02;31.40;38.40
36374;DHT22;22399;51.346;12.372;2023-07-13T09:54:33;31.30;37.90
36374;DHT22;22399;51.346;12.372;2023-07-13T09:57:12;31.70;37.80
36374;DHT22;22399;51.346;12.372;2023-07-13T09:59:44;31.90;37.60
36374;DHT22;22399;51.346;12.372;2023-07-13T10:02:25;31.90;37.30
36374;DHT22;22399;51.346;12.372;2023-07-13T10:04:59;32.20;37.30
36374;DHT22;22399;51.346;12.372;2023-07-13T10:07:30;32.20;37.60
36374;DHT22;22399;51.346;12.372;2023-07-13T10:10:00;32.10;37.00
36374;DHT22;22399;51.346;12.372;2023-07-13T10:12:30;32.50;36.90
36374;DHT22;22399;51.346;12.372;2023-07-13T10:15:07;33.20;36.50
36374;DHT22;22399;51.346;12.372;2023-07-13T10:17:51;34.20;36.10
36374;DHT22;22399;51.346;12.372;2023-07-13T10:20:20;34.60;35.30
36374;DHT22;22399;51.346;12.372;2023-07-13T10:22:54;34.40;35.30
36374;DHT22;22399;51.346;12.372;2023-07-13T10:25:25;33.60;35.40
36374;DHT22;22399;51.346;12.372;2023-07-13T10:27:56;32.90;35.70
36374;DHT22;22399;51.346;12.372;2023-07-13T10:30:29;32.40;36.20
36374;DHT22;22399;51.346;12.372;2023-07-13T10:33:01;31.80;36.70
36374;DHT22;22399;51.346;12.372;2023-07-13T10:35:31;31.50;37.10
36374;DHT22;22399;51.346;12.372;2023-07-13T10:38:02;31.00;37.40
36374;DHT22;22399;51.346;12.372;2023-07-13T10:40:37;30.60;37.60
36374;DHT22;22399;51.346;12.372;2023-07-13T10:43:17;30.50;38.20
36374;DHT22;22399;51.346;12.372;2023-07-13T10:45:48;31.00;38.40
36374;DHT22;22399;51.346;12.372;2023-07-13T10:48:17;31.50;38.10
36374;DHT22;22399;51.346;12.372;2023-07-13T10:50:49;32.20;37.80
36374;DHT22;22399;51.346;12.372;2023-07-13T10:53:21;32.60;37.10
36374;DHT22;22399;51.346;12.372;2023-07-13T10:55:58;32.40;36.70
36374;DHT22;22399;51.346;12.372;2023-07-13T10:58:33;31.90;36.70
36374;DHT22;22399;51.346;12.372;2023-07-13T11:01:09;31.70;36.90
36374;DHT22;22399;51.346;12.372;2023-07-13T11:03:49;31.40;36.80
36374;DHT22;22399;51.346;12.372;2023-07-13T11:06:32;31.20;37.00
36374;DHT22;22399;51.346;12.372;2023-07-13T11:09:19;31.10;37.10
36374;DHT22;22399;51.346;12.372;2023-07-13T11:11:48;31.20;37.10
36374;DHT22;22399;51.346;12.372;2023-07-13T11:14:29;31.50;37.00
36374;DHT22;22399;51.346;12.372;2023-07-13T11:16:58;32.00;36.80
36374;DHT22;22399;51.346;12.372;2023-07-13T11:19:41;32.40;36.20
36374;DHT22;22399;51.346;12.372;2023-07-13T11:22:21;32.30;35.70
36374;DHT22;22399;51.346;12.372;2023-07-13T11:25:00;32.50;35.60
36374;DHT22;22399;51.346;12.372;2023-07-13T11:27:41;33.00;35.50
36374;DHT22;22399;51.346;12.372;2023-07-13T11:30:25;33.20;35.00
36374;DHT22;22399;51.346;12.372;2023-07-13T11:33:07;32.70;34.90
36374;DHT22;22399;51.346;12.372;2023-07-13T11:35:49;32.30;35.00
36374;DHT22;22399;51.346;12.372;2023-07-13T11:38:21;32.00;35.40
36374;DHT22;22399;51.346;12.372;2023-07-13T11:40:54;32.20;35.30
36374;DHT22;22399;51.346;12.372;2023-07-13T11:43:23;32.50;35.20
36374;DHT22;22399;51.346;12.372;2023-07-13T11:45:52;32.70;34.90
36374;DHT22;22399;51.346;12.372;2023-07-13T11:48:28;32.50;34.70
36374;DHT22;22399;51.346;12.372;2023-07-13T11:51:01;32.60;34.50
36374;DHT22;22399;51.346;12.372;2023-07-13T11:53:36;32.40;34.40
36374;DHT22;22399;51.346;12.372;2023-07-13T11:56:07;32.60;34.30
36374;DHT22;22399;51.346;12.372;2023-07-13T11:58:36;32.00;33.90
36374;DHT22;22399;51.346;12.372;2023-07-13T12:01:05;31.80;34.00
36374;DHT22;22399;51.346;12.372;2023-07-13T12:03:34;31.90;34.10
36374;DHT22;22399;51.346;12.372;2023-07-13T12:06:05;32.00;34.00
36374;DHT22;22399;51.346;12.372;2023-07-13T12:08:38;32.00;33.70
36374;DHT22;22399;51.346;12.372;2023-07-13T12:11:15;31.90;33.70
36374;DHT22;22399;51.346;12.372;2023-07-13T12:13:46;32.30;33.80
36374;DHT22;22399;51.346;12.372;2023-07-13T12:16:20;32.40;33.40
36374;DHT22;22399;51.346;12.372;2023-07-13T12:18:52;32.80;33.50
36374;DHT22;22399;51.346;12.372;2023-07-13T12:21:28;32.90;33.10
36374;DHT22;22399;51.346;12.372;2023-07-13T12:23:58;32.70;32.80
36374;DHT22;22399;51.346;12.372;2023-07-13T12:26:31;32.50;32.80
36374;DHT22;22399;51.346;12.372;2023-07-13T12:29:05;32.60;32.90
36374;DHT22;22399;51.346;12.372;2023-07-13T12:31:36;32.70;32.70
36374;DHT22;22399;51.346;12.372;2023-07-13T12:34:09;32.40;32.40
36374;DHT22;22399;51.346;12.372;2023-07-13T12:36:40;32.10;32.50
36374;DHT22;22399;51.346;12.372;2023-07-13T12:39:15;32.10;32.40
36374;DHT22;22399;51.346;12.372;2023-07-13T12:41:48;31.80;32.20
36374;DHT22;22399;51.346;12.372;2023-07-13T12:44:19;31.50;32.40
36374;DHT22;22399;51.346;12.372;2023-07-13T12:46:56;31.50;32.40
36374;DHT22;22399;51.346;12.372;2023-07-13T12:49:29;31.80;32.30
36374;DHT22;22399;51.346;12.372;2023-07-13T12:52:02;32.00;32.10
36374;DHT22;22399;51.346;12.372;2023-07-13T12:54:31;32.40;31.80
36374;DHT22;22399;51.346;12.372;2023-07-13T12:57:01;32.60;31.60
36374;DHT22;22399;51.346;12.372;2023-07-13T12:59:31;32.60;31.30
36374;DHT22;22399;51.346;12.372;2023-07-13T13:02:22;32.70;31.30
36374;DHT22;22399;51.346;12.372;2023-07-13T13:04:55;33.20;31.30
36374;DHT22;22399;51.346;12.372;2023-07-13T13:07:24;33.50;31.00
36374;DHT22;22399;51.346;12.372;2023-07-13T13:09:53;33.60;31.00
36374;DHT22;22399;51.346;12.372;2023-07-13T13:12:23;33.30;30.90
36374;DHT22;22399;51.346;12.372;2023-07-13T13:14:53;32.70;31.30
36374;DHT22;22399;51.346;12.372;2023-07-13T13:17:26;32.50;31.50
36374;DHT22;22399;51.346;12.372;2023-07-13T13:19:57;33.00;31.40
36374;DHT22;22399;51.346;12.372;2023-07-13T13:22:25;32.50;31.50
36374;DHT22;22399;51.346;12.372;2023-07-13T13:24:54;32.50;31.70
36374;DHT22;22399;51.346;12.372;2023-07-13T13:27:24;32.50;31.50
36374;DHT22;22399;51.346;12.372;2023-07-13T13:29:53;31.80;31.80
36374;DHT22;22399;51.346;12.372;2023-07-13T13:32:21;31.80;32.00
36374;DHT22;22399;51.346;12.372;2023-07-13T13:34:50;31.90;31.80
36374;DHT22;22399;51.346;12.372;2023-07-13T13:37:20;31.40;32.10
36374;DHT22;22399;51.346;12.372;2023-07-13T13:39:50;30.70;32.50
36374;DHT22;22399;51.346;12.372;2023-07-13T13:42:36;30.30;32.90
36374;DHT22;22399;51.346;12.372;2023-07-13T13:45:06;30.50;33.00
36374;DHT22;22399;51.346;12.372;2023-07-13T13:47:35;30.90;32.80
36374;DHT22;22399;51.346;12.372;2023-07-13T13:50:12;31.40;32.40
36374;DHT22;22399;51.346;12.372;2023-07-13T13:52:43;32.30;31.80
36374;DHT22;22399;51.346;12.372;2023-07-13T13:55:13;32.50;31.50
36374;DHT22;22399;51.346;12.372;2023-07-13T13:57:43;32.80;31.40
36374;DHT22;22399;51.346;12.372;2023-07-13T14:00:13;33.10;31.10
36374;DHT22;22399;51.346;12.372;2023-07-13T14:02:45;33.30;30.70
36374;DHT22;22399;51.346;12.372;2023-07-13T14:05:20;33.00;30.90
36374;DHT22;22399;51.346;12.372;2023-07-13T14:07:50;32.30;31.60
36374;DHT22;22399;51.346;12.372;2023-07-13T14:10:20;31.90;32.20
36374;DHT22;22399;51.346;12.372;2023-07-13T14:12:52;31.70;32.70
36374;DHT22;22399;51.346;12.372;2023-07-13T14:15:25;31.50;32.90
36374;DHT22;22399;51.346;12.372;2023-07-13T14:17:54;30.90;33.00
36374;DHT22;22399;51.346;12.372;2023-07-13T14:20:25;30.50;33.50
36374;DHT22;22399;51.346;12.372;2023-07-13T14:22:54;30.10;33.70
36374;DHT22;22399;51.346;12.372;2023-07-13T14:25:23;30.20;34.00
36374;DHT22;22399;51.346;12.372;2023-07-13T14:27:57;30.10;34.00
36374;DHT22;22399;51.346;12.372;2023-07-13T14:30:28;29.90;34.00
36374;DHT22;22399;51.346;12.372;2023-07-13T14:32:56;30.00;34.10
36374;DHT22;22399;51.346;12.372;2023-07-13T14:35:25;29.90;34.00
36374;DHT22;22399;51.346;12.372;2023-07-13T14:37:54;29.50;34.10
36374;DHT22;22399;51.346;12.372;2023-07-13T14:40:28;29.30;34.30
36374;DHT22;22399;51.346;12.372;2023-07-13T14:42:58;29.00;34.50
36374;DHT22;22399;51.346;12.372;2023-07-13T14:45:28;28.70;34.70
36374;DHT22;22399;51.346;12.372;2023-07-13T14:47:57;28.70;34.80
36374;DHT22;22399;51.346;12.372;2023-07-13T14:50:30;28.60;34.90
36374;DHT22;22399;51.346;12.372;2023-07-13T14:53:00;28.40;34.90
36374;DHT22;22399;51.346;12.372;2023-07-13T14:55:28;28.40;35.10
36374;DHT22;22399;51.346;12.372;2023-07-13T14:57:58;28.40;35.20
36374;DHT22;22399;51.346;12.372;2023-07-13T15:00:27;28.30;35.20
36374;DHT22;22399;51.346;12.372;2023-07-13T15:02:59;28.30;35.30
36374;DHT22;22399;51.346;12.372;2023-07-13T15:05:30;28.40;35.20
36374;DHT22;22399;51.346;12.372;2023-07-13T15:08:01;28.50;35.20
36374;DHT22;22399;51.346;12.372;2023-07-13T15:10:32;28.30;35.20
36374;DHT22;22399;51.346;12.372;2023-07-13T15:13:13;28.30;35.30
36374;DHT22;22399;51.346;12.372;2023-07-13T15:15:45;28.20;35.30
36374;DHT22;22399;51.346;12.372;2023-07-13T15:18:15;28.10;35.30
36374;DHT22;22399;51.346;12.372;2023-07-13T15:20:45;28.30;35.40
36374;DHT22;22399;51.346;12.372;2023-07-13T15:23:16;28.30;35.30
36374;DHT22;22399;51.346;12.372;2023-07-13T15:25:45;28.40;35.40
36374;DHT22;22399;51.346;12.372;2023-07-13T15:28:15;28.80;35.30
36374;DHT22;22399;51.346;12.372;2023-07-13T15:30:46;28.70;35.10
36374;DHT22;22399;51.346;12.372;2023-07-13T15:33:16;28.60;35.20
36374;DHT22;22399;51.346;12.372;2023-07-13T15:35:47;28.40;35.30
36374;DHT22;22399;51.346;12.372;2023-07-13T15:38:19;28.10;35.50
36374;DHT22;22399;51.346;12.372;2023-07-13T15:40:48;28.20;35.70